Flight Track Log - Related Links

Times and Time Zones

All times are in EDT time to prevent confusion due to time zone crossing. See the RPA3321 flight status page for this flight to view local times or setup timezone preferences in your user account.

Time Position Orientation Groundspeed Altitude Reporting Facility
EDT Latitude Longitude Course Direction KTS MPH feet Rate Location/Type
Fri 05:39:38 AM 42.7694 -73.8089 118° Southeast 161 185 1,500  Level Boston Center
Fri 05:40:20 AM 42.7942 -73.8378 319° Northwest 171 197 2,800 1,653 Climbing Boston Center
Fri 05:41:16 AM 42.8350 -73.9011 311° West 284 327 4,200 2,741 Climbing Boston Center
Fri 05:42:00 AM 42.4324 -74.0827 180° South  Level Estimated
Fri 05:42:16 AM 42.8778 -73.9814 306° West 282 325 8,100  Level Boston Center
Fri 05:43:00 AM 42.3531 -74.1524 172° South  Level Estimated
Fri 05:43:16 AM 42.8972 -74.0642 288° West 254 292 10,700  Level Boston Center
Fri 05:44:00 AM 42.3085 -74.0396 118° Southeast  Level FlightAware Approximate
Fri 05:44:16 AM 42.8872 -74.1886 264° West 275 316 12,600  Level Boston Center
Fri 05:45:16 AM 42.8628 -74.2869 251° West 312 359 15,300 2,250 Climbing Boston Center
Fri 05:46:16 AM 42.7647 -74.2783 176° South 261 300 17,100 1,550 Climbing Boston Center
Fri 05:47:16 AM 42.6783 -74.2164 152° Southeast 336 387 18,400 1,550 Climbing Boston Center
Fri 05:48:16 AM 42.5750 -74.1486 154° Southeast 362 417 20,200 1,550 Climbing Boston Center
Fri 05:49:16 AM 42.4761 -74.0811 153° Southeast 381 438 21,500 1,350 Climbing Boston Center
Fri 05:50:16 AM 42.3728 -74.0111 153° Southeast 396 456 22,900 1,350 Climbing Boston Center
Fri 05:51:16 AM 42.2697 -73.9383 152° Southeast 408 470 24,200 1,150 Climbing Boston Center
Fri 05:52:16 AM 42.1581 -73.8656 154° Southeast 430 495 25,200 900 Climbing Boston Center
Fri 05:53:16 AM 42.0397 -73.8294 167° South 428 493 26,000 400 Climbing Boston Center
Fri 05:54:16 AM 41.9244 -73.8800 198° South 419 482 26,000  Level Boston Center
Fri 05:56:03 AM 41.7178 -73.9753 199° South 434 499 26,000  Level New York Center
Fri 05:57:04 AM 41.6039 -74.0281 199° South 440 506 26,000  Level New York Center
Fri 05:58:03 AM 41.5025 -74.0786 200° South 440 506 26,000  Level New York Center
Fri 05:59:04 AM 41.3886 -74.1308 199° South 440 506 26,000  Level New York Center
Fri 06:00:05 AM 41.2706 -74.1831 198° South 440 506 26,000  Level New York Center
Fri 06:01:03 AM 41.1525 -74.2347 198° South 450 518 26,000  Level New York Center
Fri 06:02:04 AM 41.0342 -74.2864 198° South 450 518 26,000  Level New York Center
Fri 06:03:04 AM 40.9181 -74.3408 200° South 450 518 26,000  Level New York Center
Fri 06:04:03 AM 40.8017 -74.3978 200° South 450 518 26,000  Level New York Center
Fri 06:05:04 AM 40.7297 -74.5008 227° Southwest 404 465 26,000 -400 Level New York Center
Fri 06:06:03 AM 40.6639 -74.6067 231° Southwest 382 440 25,200 -900 Descending New York Center
Fri 06:07:04 AM 40.6000 -74.7125 232° Southwest 382 440 24,200 -992 Descending New York Center
Fri 06:08:04 AM 40.5342 -74.8125 229° Southwest 375 432 23,200 -992 Descending New York Center
Fri 06:09:05 AM 40.4444 -74.8725 207° Southwest 363 418 22,200 -984 Descending New York Center
Fri 06:10:06 AM 40.3433 -74.9047 194° South 363 418 21,200 -1,008 Descending New York Center
Fri 06:11:04 AM 40.2814 -75.0044 231° Southwest 352 405 20,200 -605 Descending New York Center
Fri 06:12:05 AM 40.2333 -75.1264 243° Southwest 367 422 20,000 -98 Descending New York Center
Fri 06:13:06 AM 40.1850 -75.2483 243° Southwest 372 428 20,000  Level New York Center
Fri 06:14:06 AM 40.1364 -75.3703 242° Southwest 377 434 20,000  Level New York Center
Fri 06:15:04 AM 40.0658 -75.4714 228° Southwest 382 440 20,000  Level New York Center
Fri 06:16:05 AM 39.9906 -75.5747 226° Southwest 387 445 20,000  Level New York Center
Fri 06:17:05 AM 39.9197 -75.6781 228° Southwest 392 451 20,000  Level New York Center
Fri 06:18:03 AM 39.8586 -75.7900 235° Southwest 392 451 20,000  Level New York Center
Fri 06:19:05 AM 39.7994 -75.9047 236° Southwest 392 451 20,000 -711 Level New York Center
Fri 06:21:17 AM 39.6667 -76.1667 237° Southwest 369 425 17,700 -1,438 Descending Potomac TRACON
Fri 06:22:17 AM 39.6000 -76.2667 229° Southwest 354 407 15,400 -2,050 Descending Potomac TRACON
Fri 06:23:17 AM 39.5333 -76.3500 224° Southwest 349 402 13,600 -1,778 Descending Potomac TRACON
Fri 06:24:05 AM 39.4667 -76.4000 210° Southwest 342 394 12,200 -941 Descending Potomac TRACON
Fri 06:24:59 AM 39.4000 -76.4667 218° Southwest 339 390 12,000 -100 Descending Potomac TRACON
Fri 06:26:05 AM 39.3167 -76.5500 218° Southwest 341 392 12,000 -350 Level Potomac TRACON
Fri 06:26:59 AM 39.2333 -76.6000 205° Southwest 343 395 11,300 -1,111 Descending Potomac TRACON
Fri 06:27:53 AM 39.1667 -76.6667 218° Southwest 338 389 10,000 -684 Descending Potomac TRACON
Fri 06:28:53 AM 39.1000 -76.7500 224° Southwest 332 382 10,000 -400 Level Potomac TRACON
Fri 06:29:53 AM 39.0500 -76.8167 226° Southwest 275 316 9,200 -1,300 Descending Potomac TRACON
Fri 06:30:53 AM 38.9833 -76.8833 218° Southwest 261 300 7,400 -1,947 Descending Potomac TRACON
Fri 06:31:47 AM 38.9333 -76.9333 218° Southwest 270 311 5,500 -1,789 Descending Potomac TRACON
Fri 06:32:47 AM 38.8667 -76.9500 191° South 276 318 4,000 -750 Descending Potomac TRACON
Fri 06:33:47 AM 38.8000 -76.9500 180° South 227 261 4,000  Level Potomac TRACON
Fri 06:34:41 AM 38.7500 -76.9333 165° South 208 239 4,000 -52 Level Potomac TRACON
Fri 06:35:42 AM 38.6833 -76.9500 191° South 214 246 3,900 -645 Descending Potomac TRACON
Fri 06:36:42 AM 38.7000 -77.0000 293° West 178 205 2,700 -1,053 Descending Potomac TRACON
Fri 06:37:36 AM 38.7333 -77.0333 322° Northwest 165 190 1,900 -684 Descending Potomac TRACON
Fri 06:38:36 AM 38.7667 -77.0333 360° North 153 176 1,400 -500 Descending Potomac TRACON

Login

Don't have an account? Register now (free) for customized features, flight alerts, and more!